sensor_id;sensor_type;location;lat;lon;timestamp;P1;durP1;ratioP1;P2;durP2;ratioP2
75456;SDS011;64036;48.266;14.192;2023-03-21T00:02:11;7.90;;;4.80;;
75456;SDS011;64036;48.266;14.192;2023-03-21T00:04:37;7.10;;;4.60;;
75456;SDS011;64036;48.266;14.192;2023-03-21T00:07:03;7.10;;;4.90;;
75456;SDS011;64036;48.266;14.192;2023-03-21T00:09:29;7.50;;;4.80;;
75456;SDS011;64036;48.266;14.192;2023-03-21T00:11:57;7.40;;;4.50;;
75456;SDS011;64036;48.266;14.192;2023-03-21T00:14:27;7.30;;;4.40;;
75456;SDS011;64036;48.266;14.192;2023-03-21T00:16:55;7.30;;;5.10;;
75456;SDS011;64036;48.266;14.192;2023-03-21T00:19:24;7.70;;;4.60;;
75456;SDS011;64036;48.266;14.192;2023-03-21T00:21:51;6.40;;;4.60;;
75456;SDS011;64036;48.266;14.192;2023-03-21T00:24:26;6.30;;;4.40;;
75456;SDS011;64036;48.266;14.192;2023-03-21T00:27:14;8.30;;;5.00;;
75456;SDS011;64036;48.266;14.192;2023-03-21T00:29:47;7.30;;;5.10;;
75456;SDS011;64036;48.266;14.192;2023-03-21T00:32:20;6.90;;;4.80;;
75456;SDS011;64036;48.266;14.192;2023-03-21T00:34:49;7.00;;;4.60;;
75456;SDS011;64036;48.266;14.192;2023-03-21T00:37:16;7.00;;;4.90;;
75456;SDS011;64036;48.266;14.192;2023-03-21T00:39:45;6.40;;;4.50;;
75456;SDS011;64036;48.266;14.192;2023-03-21T00:42:14;6.70;;;4.90;;
75456;SDS011;64036;48.266;14.192;2023-03-21T00:44:43;7.60;;;4.60;;
75456;SDS011;64036;48.266;14.192;2023-03-21T00:47:12;7.30;;;4.70;;
75456;SDS011;64036;48.266;14.192;2023-03-21T00:49:38;7.50;;;4.90;;
75456;SDS011;64036;48.266;14.192;2023-03-21T00:52:08;6.30;;;4.60;;
75456;SDS011;64036;48.266;14.192;2023-03-21T00:54:35;7.00;;;5.20;;
75456;SDS011;64036;48.266;14.192;2023-03-21T00:57:02;6.90;;;5.10;;
75456;SDS011;64036;48.266;14.192;2023-03-21T00:59:31;6.90;;;4.90;;
75456;SDS011;64036;48.266;14.192;2023-03-21T01:01:57;8.10;;;4.80;;
75456;SDS011;64036;48.266;14.192;2023-03-21T01:04:28;6.10;;;4.30;;
75456;SDS011;64036;48.266;14.192;2023-03-21T01:06:54;8.30;;;4.70;;
75456;SDS011;64036;48.266;14.192;2023-03-21T01:09:26;6.30;;;4.40;;
75456;SDS011;64036;48.266;14.192;2023-03-21T01:12:04;6.70;;;4.70;;
75456;SDS011;64036;48.266;14.192;2023-03-21T01:14:30;6.70;;;4.70;;
75456;SDS011;64036;48.266;14.192;2023-03-21T01:17:22;7.30;;;4.70;;
75456;SDS011;64036;48.266;14.192;2023-03-21T01:19:50;6.40;;;4.30;;
75456;SDS011;64036;48.266;14.192;2023-03-21T01:22:18;6.90;;;4.80;;
75456;SDS011;64036;48.266;14.192;2023-03-21T01:24:51;7.10;;;4.90;;
75456;SDS011;64036;48.266;14.192;2023-03-21T01:27:17;7.10;;;5.10;;
75456;SDS011;64036;48.266;14.192;2023-03-21T01:29:43;7.60;;;5.10;;
75456;SDS011;64036;48.266;14.192;2023-03-21T01:32:23;8.20;;;5.20;;
75456;SDS011;64036;48.266;14.192;2023-03-21T01:34:48;6.40;;;4.60;;
75456;SDS011;64036;48.266;14.192;2023-03-21T01:37:23;8.30;;;5.60;;
75456;SDS011;64036;48.266;14.192;2023-03-21T01:39:51;7.30;;;4.90;;
75456;SDS011;64036;48.266;14.192;2023-03-21T01:42:17;7.90;;;5.50;;
75456;SDS011;64036;48.266;14.192;2023-03-21T01:44:58;8.40;;;5.60;;
75456;SDS011;64036;48.266;14.192;2023-03-21T01:47:34;8.60;;;6.20;;
75456;SDS011;64036;48.266;14.192;2023-03-21T01:50:02;9.20;;;6.40;;
75456;SDS011;64036;48.266;14.192;2023-03-21T01:52:32;8.60;;;6.50;;
75456;SDS011;64036;48.266;14.192;2023-03-21T01:55:05;9.60;;;5.90;;
75456;SDS011;64036;48.266;14.192;2023-03-21T01:57:45;9.20;;;6.30;;
75456;SDS011;64036;48.266;14.192;2023-03-21T02:00:14;8.60;;;5.80;;
75456;SDS011;64036;48.266;14.192;2023-03-21T02:02:49;10.00;;;6.60;;
75456;SDS011;64036;48.266;14.192;2023-03-21T02:06:00;9.90;;;6.90;;
75456;SDS011;64036;48.266;14.192;2023-03-21T02:08:34;10.80;;;6.50;;
75456;SDS011;64036;48.266;14.192;2023-03-21T02:11:26;10.30;;;6.80;;
75456;SDS011;64036;48.266;14.192;2023-03-21T02:13:54;8.30;;;6.30;;
75456;SDS011;64036;48.266;14.192;2023-03-21T02:16:49;8.70;;;6.20;;
75456;SDS011;64036;48.266;14.192;2023-03-21T02:26:42;9.20;;;6.40;;
75456;SDS011;64036;48.266;14.192;2023-03-21T02:39:47;9.40;;;6.30;;
75456;SDS011;64036;48.266;14.192;2023-03-21T02:42:56;8.80;;;6.30;;
75456;SDS011;64036;48.266;14.192;2023-03-21T02:46:12;8.20;;;5.90;;
75456;SDS011;64036;48.266;14.192;2023-03-21T02:48:58;7.90;;;5.70;;
75456;SDS011;64036;48.266;14.192;2023-03-21T02:51:32;7.90;;;5.40;;
75456;SDS011;64036;48.266;14.192;2023-03-21T02:54:09;8.70;;;6.50;;
75456;SDS011;64036;48.266;14.192;2023-03-21T02:56:43;9.40;;;5.60;;
75456;SDS011;64036;48.266;14.192;2023-03-21T02:59:12;8.00;;;5.70;;
75456;SDS011;64036;48.266;14.192;2023-03-21T03:01:41;10.90;;;6.60;;
75456;SDS011;64036;48.266;14.192;2023-03-21T03:10:25;8.80;;;5.90;;
75456;SDS011;64036;48.266;14.192;2023-03-21T03:17:15;8.70;;;6.10;;
75456;SDS011;64036;48.266;14.192;2023-03-21T03:20:46;6.40;;;4.40;;
75456;SDS011;64036;48.266;14.192;2023-03-21T03:24:21;9.90;;;5.70;;
75456;SDS011;64036;48.266;14.192;2023-03-21T03:27:12;9.50;;;6.50;;
75456;SDS011;64036;48.266;14.192;2023-03-21T03:29:59;8.80;;;6.80;;
75456;SDS011;64036;48.266;14.192;2023-03-21T03:38:11;9.00;;;5.90;;
75456;SDS011;64036;48.266;14.192;2023-03-21T03:40:43;9.80;;;6.30;;
75456;SDS011;64036;48.266;14.192;2023-03-21T03:43:50;8.20;;;6.30;;
75456;SDS011;64036;48.266;14.192;2023-03-21T03:46:51;8.60;;;5.70;;
75456;SDS011;64036;48.266;14.192;2023-03-21T03:49:34;9.20;;;5.90;;
75456;SDS011;64036;48.266;14.192;2023-03-21T03:52:28;9.00;;;6.50;;
75456;SDS011;64036;48.266;14.192;2023-03-21T03:54:59;8.80;;;6.00;;
75456;SDS011;64036;48.266;14.192;2023-03-21T03:57:33;8.40;;;5.20;;
75456;SDS011;64036;48.266;14.192;2023-03-21T04:00:05;8.70;;;6.00;;
75456;SDS011;64036;48.266;14.192;2023-03-21T04:02:57;8.40;;;6.00;;
75456;SDS011;64036;48.266;14.192;2023-03-21T04:05:46;9.00;;;6.20;;
75456;SDS011;64036;48.266;14.192;2023-03-21T04:08:15;9.40;;;7.00;;
75456;SDS011;64036;48.266;14.192;2023-03-21T04:10:44;9.20;;;6.40;;
75456;SDS011;64036;48.266;14.192;2023-03-21T04:13:13;8.80;;;6.40;;
75456;SDS011;64036;48.266;14.192;2023-03-21T04:15:39;9.70;;;6.40;;
75456;SDS011;64036;48.266;14.192;2023-03-21T04:18:15;9.50;;;6.30;;
75456;SDS011;64036;48.266;14.192;2023-03-21T04:20:55;11.20;;;6.60;;
75456;SDS011;64036;48.266;14.192;2023-03-21T04:26:12;9.10;;;6.60;;
75456;SDS011;64036;48.266;14.192;2023-03-21T04:29:09;9.30;;;6.60;;
75456;SDS011;64036;48.266;14.192;2023-03-21T04:32:06;9.10;;;6.00;;
75456;SDS011;64036;48.266;14.192;2023-03-21T04:34:46;8.60;;;6.40;;
75456;SDS011;64036;48.266;14.192;2023-03-21T04:37:17;9.20;;;6.10;;
75456;SDS011;64036;48.266;14.192;2023-03-21T04:40:25;8.80;;;5.90;;
75456;SDS011;64036;48.266;14.192;2023-03-21T04:43:26;7.80;;;5.70;;
75456;SDS011;64036;48.266;14.192;2023-03-21T04:46:06;8.70;;;6.00;;
75456;SDS011;64036;48.266;14.192;2023-03-21T04:48:49;7.10;;;5.20;;
75456;SDS011;64036;48.266;14.192;2023-03-21T04:51:28;8.40;;;5.80;;
75456;SDS011;64036;48.266;14.192;2023-03-21T04:54:38;7.90;;;5.50;;
75456;SDS011;64036;48.266;14.192;2023-03-21T04:57:09;7.80;;;4.70;;
75456;SDS011;64036;48.266;14.192;2023-03-21T04:59:40;8.60;;;6.10;;
75456;SDS011;64036;48.266;14.192;2023-03-21T05:02:22;7.60;;;5.40;;
75456;SDS011;64036;48.266;14.192;2023-03-21T05:04:59;6.90;;;5.00;;
75456;SDS011;64036;48.266;14.192;2023-03-21T05:07:27;7.80;;;5.60;;
75456;SDS011;64036;48.266;14.192;2023-03-21T05:09:57;7.20;;;4.80;;
75456;SDS011;64036;48.266;14.192;2023-03-21T05:12:26;8.40;;;6.30;;
75456;SDS011;64036;48.266;14.192;2023-03-21T05:20:12;7.80;;;5.40;;
75456;SDS011;64036;48.266;14.192;2023-03-21T05:22:42;9.70;;;6.80;;
75456;SDS011;64036;48.266;14.192;2023-03-21T05:25:17;9.20;;;6.90;;
75456;SDS011;64036;48.266;14.192;2023-03-21T05:27:46;8.30;;;6.10;;
75456;SDS011;64036;48.266;14.192;2023-03-21T05:30:26;9.80;;;7.10;;
75456;SDS011;64036;48.266;14.192;2023-03-21T05:32:55;9.90;;;7.60;;
75456;SDS011;64036;48.266;14.192;2023-03-21T05:35:21;9.50;;;7.20;;
75456;SDS011;64036;48.266;14.192;2023-03-21T05:37:47;11.60;;;8.80;;
75456;SDS011;64036;48.266;14.192;2023-03-21T05:40:13;10.20;;;8.10;;
75456;SDS011;64036;48.266;14.192;2023-03-21T05:42:52;10.50;;;8.10;;
75456;SDS011;64036;48.266;14.192;2023-03-21T05:45:18;9.90;;;8.20;;
75456;SDS011;64036;48.266;14.192;2023-03-21T05:47:44;8.90;;;7.10;;
75456;SDS011;64036;48.266;14.192;2023-03-21T05:50:13;11.40;;;9.20;;
75456;SDS011;64036;48.266;14.192;2023-03-21T05:52:39;10.40;;;7.60;;
75456;SDS011;64036;48.266;14.192;2023-03-21T05:55:05;10.70;;;8.40;;
75456;SDS011;64036;48.266;14.192;2023-03-21T05:57:31;9.80;;;7.60;;
75456;SDS011;64036;48.266;14.192;2023-03-21T06:00:00;10.30;;;8.30;;
75456;SDS011;64036;48.266;14.192;2023-03-21T06:02:26;9.30;;;7.20;;
75456;SDS011;64036;48.266;14.192;2023-03-21T06:04:52;10.50;;;7.90;;
75456;SDS011;64036;48.266;14.192;2023-03-21T06:07:18;11.30;;;8.10;;
75456;SDS011;64036;48.266;14.192;2023-03-21T06:09:44;10.40;;;7.90;;
75456;SDS011;64036;48.266;14.192;2023-03-21T06:12:10;9.40;;;7.60;;
75456;SDS011;64036;48.266;14.192;2023-03-21T06:14:36;10.20;;;7.60;;
75456;SDS011;64036;48.266;14.192;2023-03-21T06:17:05;10.10;;;7.00;;
75456;SDS011;64036;48.266;14.192;2023-03-21T06:19:34;10.80;;;7.70;;
75456;SDS011;64036;48.266;14.192;2023-03-21T06:22:00;9.70;;;7.90;;
75456;SDS011;64036;48.266;14.192;2023-03-21T06:24:25;10.10;;;7.10;;
75456;SDS011;64036;48.266;14.192;2023-03-21T06:26:51;9.70;;;7.30;;
75456;SDS011;64036;48.266;14.192;2023-03-21T06:29:17;8.30;;;6.90;;
75456;SDS011;64036;48.266;14.192;2023-03-21T06:31:42;8.80;;;6.70;;
75456;SDS011;64036;48.266;14.192;2023-03-21T06:34:08;9.50;;;7.40;;
75456;SDS011;64036;48.266;14.192;2023-03-21T06:36:41;10.20;;;7.80;;
75456;SDS011;64036;48.266;14.192;2023-03-21T06:39:09;10.10;;;7.60;;
75456;SDS011;64036;48.266;14.192;2023-03-21T06:41:35;10.90;;;7.20;;
75456;SDS011;64036;48.266;14.192;2023-03-21T06:44:01;8.40;;;7.00;;
75456;SDS011;64036;48.266;14.192;2023-03-21T06:46:28;8.60;;;6.80;;
75456;SDS011;64036;48.266;14.192;2023-03-21T06:48:53;8.30;;;6.90;;
75456;SDS011;64036;48.266;14.192;2023-03-21T06:51:19;8.50;;;7.10;;
75456;SDS011;64036;48.266;14.192;2023-03-21T06:53:45;8.60;;;7.10;;
75456;SDS011;64036;48.266;14.192;2023-03-21T06:56:12;8.10;;;6.30;;
75456;SDS011;64036;48.266;14.192;2023-03-21T06:58:38;7.60;;;6.30;;
75456;SDS011;64036;48.266;14.192;2023-03-21T07:01:05;8.60;;;6.40;;
75456;SDS011;64036;48.266;14.192;2023-03-21T07:03:31;9.30;;;6.30;;
75456;SDS011;64036;48.266;14.192;2023-03-21T07:06:03;10.30;;;6.00;;
75456;SDS011;64036;48.266;14.192;2023-03-21T07:08:31;7.50;;;5.30;;
75456;SDS011;64036;48.266;14.192;2023-03-21T07:10:57;7.80;;;5.70;;
75456;SDS011;64036;48.266;14.192;2023-03-21T07:13:22;8.40;;;5.70;;
75456;SDS011;64036;48.266;14.192;2023-03-21T07:15:48;7.90;;;6.00;;
75456;SDS011;64036;48.266;14.192;2023-03-21T07:18:14;9.20;;;6.30;;
75456;SDS011;64036;48.266;14.192;2023-03-21T07:20:39;9.40;;;5.70;;
75456;SDS011;64036;48.266;14.192;2023-03-21T07:23:05;6.50;;;5.00;;
75456;SDS011;64036;48.266;14.192;2023-03-21T07:25:31;6.70;;;5.30;;
75456;SDS011;64036;48.266;14.192;2023-03-21T07:27:57;6.40;;;5.30;;
75456;SDS011;64036;48.266;14.192;2023-03-21T07:30:23;7.50;;;5.70;;
75456;SDS011;64036;48.266;14.192;2023-03-21T07:32:49;7.90;;;5.60;;
75456;SDS011;64036;48.266;14.192;2023-03-21T07:35:15;9.10;;;5.60;;
75456;SDS011;64036;48.266;14.192;2023-03-21T07:37:42;8.50;;;5.20;;
75456;SDS011;64036;48.266;14.192;2023-03-21T07:40:08;6.10;;;4.60;;
75456;SDS011;64036;48.266;14.192;2023-03-21T07:42:37;6.00;;;4.80;;
75456;SDS011;64036;48.266;14.192;2023-03-21T07:45:03;5.70;;;4.60;;
75456;SDS011;64036;48.266;14.192;2023-03-21T07:47:31;6.20;;;4.70;;
75456;SDS011;64036;48.266;14.192;2023-03-21T07:49:57;6.80;;;4.70;;
75456;SDS011;64036;48.266;14.192;2023-03-21T07:52:23;6.30;;;5.00;;
75456;SDS011;64036;48.266;14.192;2023-03-21T07:54:48;6.70;;;4.40;;
75456;SDS011;64036;48.266;14.192;2023-03-21T07:57:14;5.80;;;3.90;;
75456;SDS011;64036;48.266;14.192;2023-03-21T07:59:39;5.40;;;4.20;;
75456;SDS011;64036;48.266;14.192;2023-03-21T08:02:05;5.50;;;4.00;;
75456;SDS011;64036;48.266;14.192;2023-03-21T08:04:31;4.80;;;3.40;;
75456;SDS011;64036;48.266;14.192;2023-03-21T08:06:59;5.10;;;3.80;;
75456;SDS011;64036;48.266;14.192;2023-03-21T08:09:24;5.80;;;4.00;;
75456;SDS011;64036;48.266;14.192;2023-03-21T08:11:50;6.30;;;3.40;;
75456;SDS011;64036;48.266;14.192;2023-03-21T08:14:15;4.40;;;3.20;;
75456;SDS011;64036;48.266;14.192;2023-03-21T08:16:41;5.30;;;3.50;;
75456;SDS011;64036;48.266;14.192;2023-03-21T08:19:06;4.70;;;3.30;;
75456;SDS011;64036;48.266;14.192;2023-03-21T08:21:32;4.40;;;3.20;;
75456;SDS011;64036;48.266;14.192;2023-03-21T08:23:57;5.40;;;3.20;;
75456;SDS011;64036;48.266;14.192;2023-03-21T08:26:23;4.90;;;3.20;;
75456;SDS011;64036;48.266;14.192;2023-03-21T08:28:50;4.40;;;2.90;;
75456;SDS011;64036;48.266;14.192;2023-03-21T08:31:16;4.00;;;3.10;;
75456;SDS011;64036;48.266;14.192;2023-03-21T08:33:42;4.90;;;3.00;;
75456;SDS011;64036;48.266;14.192;2023-03-21T08:36:08;4.80;;;3.30;;
75456;SDS011;64036;48.266;14.192;2023-03-21T08:38:34;3.80;;;2.90;;
75456;SDS011;64036;48.266;14.192;2023-03-21T08:41:00;4.60;;;2.80;;
75456;SDS011;64036;48.266;14.192;2023-03-21T08:43:27;3.40;;;2.60;;
75456;SDS011;64036;48.266;14.192;2023-03-21T08:45:54;3.70;;;2.70;;
75456;SDS011;64036;48.266;14.192;2023-03-21T08:48:20;4.00;;;2.40;;
75456;SDS011;64036;48.266;14.192;2023-03-21T08:50:46;4.80;;;2.60;;
75456;SDS011;64036;48.266;14.192;2023-03-21T08:53:11;4.80;;;2.60;;
75456;SDS011;64036;48.266;14.192;2023-03-21T08:55:37;3.80;;;2.30;;
75456;SDS011;64036;48.266;14.192;2023-03-21T08:58:03;4.40;;;2.80;;
75456;SDS011;64036;48.266;14.192;2023-03-21T09:00:29;4.00;;;2.70;;
75456;SDS011;64036;48.266;14.192;2023-03-21T09:02:55;5.60;;;3.00;;
75456;SDS011;64036;48.266;14.192;2023-03-21T09:05:23;3.30;;;2.30;;
75456;SDS011;64036;48.266;14.192;2023-03-21T09:07:52;4.30;;;3.10;;
75456;SDS011;64036;48.266;14.192;2023-03-21T09:10:20;3.20;;;2.50;;
75456;SDS011;64036;48.266;14.192;2023-03-21T09:12:49;4.40;;;3.00;;
75456;SDS011;64036;48.266;14.192;2023-03-21T09:15:16;4.00;;;2.60;;
75456;SDS011;64036;48.266;14.192;2023-03-21T09:17:44;5.10;;;3.10;;
75456;SDS011;64036;48.266;14.192;2023-03-21T09:20:14;3.70;;;2.70;;
75456;SDS011;64036;48.266;14.192;2023-03-21T09:22:49;5.70;;;3.40;;
75456;SDS011;64036;48.266;14.192;2023-03-21T09:25:16;4.60;;;2.80;;
75456;SDS011;64036;48.266;14.192;2023-03-21T09:27:43;3.50;;;2.80;;
75456;SDS011;64036;48.266;14.192;2023-03-21T09:30:15;4.60;;;3.10;;
75456;SDS011;64036;48.266;14.192;2023-03-21T09:32:42;4.10;;;2.90;;
75456;SDS011;64036;48.266;14.192;2023-03-21T09:35:09;3.70;;;2.70;;
75456;SDS011;64036;48.266;14.192;2023-03-21T09:37:36;4.50;;;3.00;;
75456;SDS011;64036;48.266;14.192;2023-03-21T09:40:13;5.30;;;3.70;;
75456;SDS011;64036;48.266;14.192;2023-03-21T09:42:54;4.50;;;3.10;;
75456;SDS011;64036;48.266;14.192;2023-03-21T09:45:30;4.30;;;3.20;;
75456;SDS011;64036;48.266;14.192;2023-03-21T09:48:01;4.30;;;3.00;;
75456;SDS011;64036;48.266;14.192;2023-03-21T09:50:37;6.10;;;3.70;;
75456;SDS011;64036;48.266;14.192;2023-03-21T09:53:08;4.40;;;3.00;;
75456;SDS011;64036;48.266;14.192;2023-03-21T09:55:40;5.20;;;3.40;;
75456;SDS011;64036;48.266;14.192;2023-03-21T09:58:25;4.20;;;3.40;;
75456;SDS011;64036;48.266;14.192;2023-03-21T10:01:00;5.50;;;3.40;;
75456;SDS011;64036;48.266;14.192;2023-03-21T10:03:56;4.10;;;2.80;;
75456;SDS011;64036;48.266;14.192;2023-03-21T10:06:25;5.10;;;3.60;;
75456;SDS011;64036;48.266;14.192;2023-03-21T10:09:16;5.40;;;3.50;;
75456;SDS011;64036;48.266;14.192;2023-03-21T10:11:55;4.50;;;3.20;;
75456;SDS011;64036;48.266;14.192;2023-03-21T10:14:34;5.20;;;3.10;;
75456;SDS011;64036;48.266;14.192;2023-03-21T10:17:40;5.50;;;3.50;;
75456;SDS011;64036;48.266;14.192;2023-03-21T10:20:21;5.30;;;3.60;;
75456;SDS011;64036;48.266;14.192;2023-03-21T10:22:51;4.90;;;3.70;;
75456;SDS011;64036;48.266;14.192;2023-03-21T10:25:21;4.90;;;3.20;;
75456;SDS011;64036;48.266;14.192;2023-03-21T10:27:51;4.70;;;3.30;;
75456;SDS011;64036;48.266;14.192;2023-03-21T10:30:27;4.80;;;3.10;;
75456;SDS011;64036;48.266;14.192;2023-03-21T10:33:07;5.00;;;3.10;;
75456;SDS011;64036;48.266;14.192;2023-03-21T10:35:38;4.80;;;3.10;;
75456;SDS011;64036;48.266;14.192;2023-03-21T10:38:06;4.60;;;3.00;;
75456;SDS011;64036;48.266;14.192;2023-03-21T10:40:38;4.40;;;3.00;;
75456;SDS011;64036;48.266;14.192;2023-03-21T10:45:53;5.10;;;3.00;;
75456;SDS011;64036;48.266;14.192;2023-03-21T10:48:20;5.10;;;3.50;;
75456;SDS011;64036;48.266;14.192;2023-03-21T10:50:49;4.90;;;3.40;;
75456;SDS011;64036;48.266;14.192;2023-03-21T10:53:26;4.00;;;2.60;;
75456;SDS011;64036;48.266;14.192;2023-03-21T10:55:56;5.00;;;3.40;;
75456;SDS011;64036;48.266;14.192;2023-03-21T10:58:36;5.20;;;3.00;;
75456;SDS011;64036;48.266;14.192;2023-03-21T11:01:06;5.40;;;2.90;;
75456;SDS011;64036;48.266;14.192;2023-03-21T11:03:39;5.00;;;2.80;;
75456;SDS011;64036;48.266;14.192;2023-03-21T11:06:25;4.60;;;3.10;;
75456;SDS011;64036;48.266;14.192;2023-03-21T11:09:00;5.70;;;3.00;;
75456;SDS011;64036;48.266;14.192;2023-03-21T11:11:36;6.60;;;3.00;;
75456;SDS011;64036;48.266;14.192;2023-03-21T11:14:38;4.90;;;3.10;;
75456;SDS011;64036;48.266;14.192;2023-03-21T11:17:33;4.80;;;2.80;;
75456;SDS011;64036;48.266;14.192;2023-03-21T11:20:04;3.90;;;2.60;;
75456;SDS011;64036;48.266;14.192;2023-03-21T11:22:41;5.80;;;3.40;;
75456;SDS011;64036;48.266;14.192;2023-03-21T11:25:10;4.70;;;2.60;;
75456;SDS011;64036;48.266;14.192;2023-03-21T11:27:51;5.70;;;3.20;;
75456;SDS011;64036;48.266;14.192;2023-03-21T11:30:23;4.40;;;2.90;;
75456;SDS011;64036;48.266;14.192;2023-03-21T11:32:56;4.10;;;3.00;;
75456;SDS011;64036;48.266;14.192;2023-03-21T11:35:35;4.40;;;2.90;;
75456;SDS011;64036;48.266;14.192;2023-03-21T11:38:02;4.30;;;2.50;;
75456;SDS011;64036;48.266;14.192;2023-03-21T11:40:32;5.00;;;2.70;;
75456;SDS011;64036;48.266;14.192;2023-03-21T11:43:00;4.30;;;2.60;;
75456;SDS011;64036;48.266;14.192;2023-03-21T11:45:29;4.00;;;2.50;;
75456;SDS011;64036;48.266;14.192;2023-03-21T11:47:58;4.50;;;2.80;;
75456;SDS011;64036;48.266;14.192;2023-03-21T11:50:33;3.70;;;2.50;;
75456;SDS011;64036;48.266;14.192;2023-03-21T11:53:19;4.80;;;2.70;;
75456;SDS011;64036;48.266;14.192;2023-03-21T11:56:26;4.50;;;2.60;;
75456;SDS011;64036;48.266;14.192;2023-03-21T12:25:18;4.40;;;2.30;;
75456;SDS011;64036;48.266;14.192;2023-03-21T12:44:42;4.30;;;2.70;;
75456;SDS011;64036;48.266;14.192;2023-03-21T12:47:25;4.60;;;2.90;;
75456;SDS011;64036;48.266;14.192;2023-03-21T12:49:59;4.00;;;2.50;;
75456;SDS011;64036;48.266;14.192;2023-03-21T12:52:46;3.90;;;2.50;;
75456;SDS011;64036;48.266;14.192;2023-03-21T12:55:24;4.30;;;2.60;;
75456;SDS011;64036;48.266;14.192;2023-03-21T12:58:08;4.00;;;2.50;;
75456;SDS011;64036;48.266;14.192;2023-03-21T13:00:44;4.50;;;2.80;;
75456;SDS011;64036;48.266;14.192;2023-03-21T13:06:00;4.40;;;2.70;;
75456;SDS011;64036;48.266;14.192;2023-03-21T13:08:29;5.00;;;2.60;;
75456;SDS011;64036;48.266;14.192;2023-03-21T13:10:59;5.70;;;3.20;;
75456;SDS011;64036;48.266;14.192;2023-03-21T13:29:34;4.70;;;3.10;;
75456;SDS011;64036;48.266;14.192;2023-03-21T13:35:15;5.10;;;2.90;;
75456;SDS011;64036;48.266;14.192;2023-03-21T13:38:09;5.20;;;2.80;;
75456;SDS011;64036;48.266;14.192;2023-03-21T13:40:57;4.60;;;2.80;;
75456;SDS011;64036;48.266;14.192;2023-03-21T13:46:12;5.70;;;3.10;;
75456;SDS011;64036;48.266;14.192;2023-03-21T13:48:54;5.60;;;3.40;;
75456;SDS011;64036;48.266;14.192;2023-03-21T13:57:03;5.20;;;2.50;;
75456;SDS011;64036;48.266;14.192;2023-03-21T14:02:22;3.60;;;2.30;;
75456;SDS011;64036;48.266;14.192;2023-03-21T14:05:01;5.40;;;2.70;;
75456;SDS011;64036;48.266;14.192;2023-03-21T14:07:52;4.70;;;2.80;;
75456;SDS011;64036;48.266;14.192;2023-03-21T14:10:38;4.20;;;2.70;;
75456;SDS011;64036;48.266;14.192;2023-03-21T14:13:08;4.00;;;2.60;;
75456;SDS011;64036;48.266;14.192;2023-03-21T14:15:40;3.20;;;2.10;;
75456;SDS011;64036;48.266;14.192;2023-03-21T14:18:14;4.30;;;2.60;;
75456;SDS011;64036;48.266;14.192;2023-03-21T14:20:41;4.40;;;2.60;;
75456;SDS011;64036;48.266;14.192;2023-03-21T14:23:14;5.20;;;2.90;;
75456;SDS011;64036;48.266;14.192;2023-03-21T14:25:41;5.30;;;3.10;;
75456;SDS011;64036;48.266;14.192;2023-03-21T14:28:16;7.70;;;3.00;;
75456;SDS011;64036;48.266;14.192;2023-03-21T14:30:44;3.60;;;2.20;;
75456;SDS011;64036;48.266;14.192;2023-03-21T14:35:44;4.90;;;3.00;;
75456;SDS011;64036;48.266;14.192;2023-03-21T14:38:27;3.90;;;2.70;;
75456;SDS011;64036;48.266;14.192;2023-03-21T14:40:57;4.90;;;2.70;;
75456;SDS011;64036;48.266;14.192;2023-03-21T14:43:25;4.30;;;3.00;;
75456;SDS011;64036;48.266;14.192;2023-03-21T14:45:54;5.00;;;3.10;;
75456;SDS011;64036;48.266;14.192;2023-03-21T14:48:28;4.80;;;2.90;;
75456;SDS011;64036;48.266;14.192;2023-03-21T14:50:56;6.60;;;3.10;;
75456;SDS011;64036;48.266;14.192;2023-03-21T14:53:31;5.90;;;3.30;;
75456;SDS011;64036;48.266;14.192;2023-03-21T14:56:05;5.80;;;3.20;;
75456;SDS011;64036;48.266;14.192;2023-03-21T14:58:32;4.80;;;3.10;;
75456;SDS011;64036;48.266;14.192;2023-03-21T15:01:05;4.20;;;2.90;;
75456;SDS011;64036;48.266;14.192;2023-03-21T15:03:33;4.90;;;3.10;;
75456;SDS011;64036;48.266;14.192;2023-03-21T15:06:00;4.90;;;3.00;;
75456;SDS011;64036;48.266;14.192;2023-03-21T15:08:27;4.30;;;2.70;;
75456;SDS011;64036;48.266;14.192;2023-03-21T15:11:05;6.00;;;3.30;;
75456;SDS011;64036;48.266;14.192;2023-03-21T15:13:39;7.00;;;3.30;;
75456;SDS011;64036;48.266;14.192;2023-03-21T15:16:11;9.00;;;3.30;;
75456;SDS011;64036;48.266;14.192;2023-03-21T15:18:39;4.30;;;2.70;;
75456;SDS011;64036;48.266;14.192;2023-03-21T15:21:20;5.90;;;3.40;;
75456;SDS011;64036;48.266;14.192;2023-03-21T15:24:49;5.40;;;2.80;;
75456;SDS011;64036;48.266;14.192;2023-03-21T15:27:01;5.40;;;3.00;;
75456;SDS011;64036;48.266;14.192;2023-03-21T15:29:29;5.70;;;2.60;;
75456;SDS011;64036;48.266;14.192;2023-03-21T15:31:57;4.30;;;2.40;;
75456;SDS011;64036;48.266;14.192;2023-03-21T15:34:28;3.70;;;2.20;;
75456;SDS011;64036;48.266;14.192;2023-03-21T15:37:04;5.50;;;3.00;;
75456;SDS011;64036;48.266;14.192;2023-03-21T15:39:31;4.90;;;2.90;;
75456;SDS011;64036;48.266;14.192;2023-03-21T15:44:47;4.90;;;3.10;;
75456;SDS011;64036;48.266;14.192;2023-03-21T15:47:15;4.30;;;2.50;;
75456;SDS011;64036;48.266;14.192;2023-03-21T15:52:52;5.70;;;2.90;;
75456;SDS011;64036;48.266;14.192;2023-03-21T15:55:27;4.90;;;2.40;;
75456;SDS011;64036;48.266;14.192;2023-03-21T15:58:03;3.70;;;2.30;;
75456;SDS011;64036;48.266;14.192;2023-03-21T16:00:41;4.60;;;2.40;;
75456;SDS011;64036;48.266;14.192;2023-03-21T16:03:30;4.60;;;2.60;;
75456;SDS011;64036;48.266;14.192;2023-03-21T16:06:30;4.70;;;2.60;;
75456;SDS011;64036;48.266;14.192;2023-03-21T16:09:11;5.40;;;2.80;;
75456;SDS011;64036;48.266;14.192;2023-03-21T16:11:51;5.00;;;2.80;;
75456;SDS011;64036;48.266;14.192;2023-03-21T16:14:23;4.30;;;2.60;;
75456;SDS011;64036;48.266;14.192;2023-03-21T16:16:52;4.40;;;2.60;;
75456;SDS011;64036;48.266;14.192;2023-03-21T16:19:18;5.10;;;2.70;;
75456;SDS011;64036;48.266;14.192;2023-03-21T16:21:44;5.10;;;2.70;;
75456;SDS011;64036;48.266;14.192;2023-03-21T16:24:11;4.40;;;2.40;;
75456;SDS011;64036;48.266;14.192;2023-03-21T16:26:46;5.60;;;2.50;;
75456;SDS011;64036;48.266;14.192;2023-03-21T16:29:16;3.90;;;2.30;;
75456;SDS011;64036;48.266;14.192;2023-03-21T16:31:43;4.60;;;2.40;;
75456;SDS011;64036;48.266;14.192;2023-03-21T16:34:12;4.70;;;2.40;;
75456;SDS011;64036;48.266;14.192;2023-03-21T16:36:40;4.80;;;2.80;;
75456;SDS011;64036;48.266;14.192;2023-03-21T16:41:44;3.40;;;2.20;;
75456;SDS011;64036;48.266;14.192;2023-03-21T16:44:11;4.30;;;2.20;;
75456;SDS011;64036;48.266;14.192;2023-03-21T16:46:37;3.50;;;2.40;;
75456;SDS011;64036;48.266;14.192;2023-03-21T16:49:21;3.90;;;2.40;;
75456;SDS011;64036;48.266;14.192;2023-03-21T16:51:49;3.60;;;2.20;;
75456;SDS011;64036;48.266;14.192;2023-03-21T16:54:15;3.60;;;2.40;;
75456;SDS011;64036;48.266;14.192;2023-03-21T16:56:50;3.90;;;2.30;;
75456;SDS011;64036;48.266;14.192;2023-03-21T16:59:17;4.10;;;2.50;;
75456;SDS011;64036;48.266;14.192;2023-03-21T17:01:43;5.10;;;2.70;;
75456;SDS011;64036;48.266;14.192;2023-03-21T17:04:16;4.60;;;2.40;;
75456;SDS011;64036;48.266;14.192;2023-03-21T17:06:48;2.60;;;1.90;;
75456;SDS011;64036;48.266;14.192;2023-03-21T17:09:21;5.20;;;2.20;;
75456;SDS011;64036;48.266;14.192;2023-03-21T17:11:50;4.30;;;2.30;;
75456;SDS011;64036;48.266;14.192;2023-03-21T17:14:16;4.60;;;2.40;;
75456;SDS011;64036;48.266;14.192;2023-03-21T17:16:43;4.80;;;2.20;;
75456;SDS011;64036;48.266;14.192;2023-03-21T17:19:15;4.10;;;2.60;;
75456;SDS011;64036;48.266;14.192;2023-03-21T17:21:43;4.80;;;2.60;;